^^
Grace C. Lehan Memorial Weather Station Historical Data
Daily Summary for March 29, 2021 Units:  English    Metric   Both
Daily Weekly Monthly Yearly
  High: Low: Average:
Temperature: 49.2 °F 45.1 °F 46.9 °F
Dew Point: 47.4 °F 42.2 °F 44.9 °F
Humidity: 96% 82.3% 93%
Wind Speed: 10mph 0mph 2.2mph
Wind Gust: 20mph - -
Wind- - ENE
Pressure: 30.18 in 29.90 in -
Precipitation: 1.77 in    
 
 
Tabular Data for March 29, 2021
Time Temperature Dew Point Pressure Wind Wind Speed Wind Gust Humidity Rainfall Rate (Hourly) solar
00:00 47.9 °F 46.3 °F 29.97 in NE 10 mph 15 mph 94% 0.20 in 0 W/m2
00:09 47.7 °F 46.1 °F 29.99 in ENE 3.2 mph 13 mph 94% 0.23 in 0 W/m2
00:14 47.6 °F 46 °F 29.99 in ENE 2.6 mph 13 mph 94.2% 0.25 in 0 W/m2
00:19 47.6 °F 46.1 °F 29.99 in ENE 3.7 mph 13 mph 94.6% 0.26 in 0 W/m2
00:24 47.4 °F 46 °F 29.99 in NE 5.1 mph 14 mph 94.7% 0.28 in 0 W/m2
00:29 47.4 °F 45.9 °F 29.99 in ENE 1.7 mph 14 mph 94.4% 0.29 in 0 W/m2
00:34 47.4 °F 46 °F 29.99 in ENE 4.2 mph 14 mph 95% 0.29 in 0 W/m2
00:39 47.4 °F 46 °F 29.98 in ENE 1.4 mph 12 mph 95% 0.21 in 0 W/m2
00:44 47.3 °F 46 °F 29.98 in ENE 3.8 mph 12 mph 95% 0.22 in 0 W/m2
00:49 47.3 °F 45.9 °F 29.98 in NE 2.9 mph 12 mph 95% 0.24 in 0 W/m2
00:54 47.2 °F 45.8 °F 29.98 in ENE 2.2 mph 12 mph 95% 0.26 in 0 W/m2
00:59 47.2 °F 45.8 °F 29.98 in ENE 1.2 mph 12 mph 95% 0.28 in 0 W/m2
01:04 47.1 °F 45.7 °F 29.98 in NE 2 mph 12 mph 95% 0.28 in 0 W/m2
01:09 47.1 °F 45.7 °F 29.99 in NE 0.9 mph 10 mph 95% 0.15 in 0 W/m2
01:14 47 °F 45.7 °F 29.98 in ENE 3.7 mph 10 mph 95% 0.17 in 0 W/m2
01:19 46.9 °F 45.6 °F 29.97 in ENE 3 mph 12 mph 95% 0.19 in 0 W/m2
01:24 46.9 °F 45.6 °F 29.97 in ENE 2 mph 12 mph 95% 0.21 in 0 W/m2
01:29 46.9 °F 45.6 °F 29.97 in ENE 4.7 mph 12 mph 95% 0.24 in 0 W/m2
01:34 46.9 °F 45.6 °F 29.96 in East 0.8 mph 12 mph 95% 0.26 in 0 W/m2
01:39 46.8 °F 45.5 °F 29.96 in NE 1.8 mph 10 mph 95% 0.28 in 0 W/m2
01:44 46.8 °F 45.4 °F 29.96 in ENE 3.5 mph 11 mph 95% 0.31 in 0 W/m2
01:49 46.7 °F 45.3 °F 29.96 in ENE 2.1 mph 12 mph 95% 0.33 in 0 W/m2
01:54 46.6 °F 45.2 °F 29.95 in ENE 2.3 mph 13 mph 95% 0.35 in 0 W/m2
01:59 46.5 °F 45.2 °F 29.95 in ENE 3.3 mph 13 mph 95% 0.38 in 0 W/m2
02:04 46.5 °F 45.2 °F 29.95 in NE 2.1 mph 13 mph 95% 0.38 in 0 W/m2
02:09 46.5 °F 45.2 °F 29.95 in NE 2.6 mph 13 mph 95% 0.32 in 0 W/m2
02:14 46.5 °F 45.1 °F 29.95 in NE 1.6 mph 13 mph 95% 0.34 in 0 W/m2
02:19 46.4 °F 45 °F 29.94 in ENE 2.5 mph 13 mph 95% 0.36 in 0 W/m2
02:24 46.2 °F 44.9 °F 29.93 in ENE 3.2 mph 13 mph 95% 0.39 in 0 W/m2
02:29 46 °F 44.7 °F 29.93 in ENE 3.7 mph 15 mph 95% 0.41 in 0 W/m2
02:34 45.9 °F 44.6 °F 29.93 in ENE 2.4 mph 15 mph 95% 0.41 in 0 W/m2
02:39 45.9 °F 44.5 °F 29.93 in ENE 4.3 mph 12 mph 95% 0.33 in 0 W/m2
02:44 45.8 °F 44.5 °F 29.93 in ENE 4.6 mph 14 mph 95% 0.36 in 0 W/m2
02:49 45.8 °F 44.4 °F 29.93 in ENE 2.5 mph 14 mph 95% 0.38 in 0 W/m2
02:54 45.7 °F 44.4 °F 29.93 in ENE 4.2 mph 14 mph 95% 0.41 in 0 W/m2
02:59 45.7 °F 44.3 °F 29.92 in ENE 4.2 mph 14 mph 95% 0.43 in 0 W/m2
03:04 45.6 °F 44.2 °F 29.92 in ENE 4.9 mph 14 mph 95% 0.43 in 0 W/m2
03:09 45.5 °F 44.1 °F 29.91 in ENE 2.3 mph 14 mph 95% 0.34 in 0 W/m2
03:14 45.5 °F 44.1 °F 29.91 in NE 3 mph 14 mph 95% 0.37 in 0 W/m2
03:19 45.5 °F 44.1 °F 29.91 in ENE 2.6 mph 14 mph 95% 0.39 in 0 W/m2
03:24 45.4 °F 44.1 °F 29.90 in North 1.7 mph 14 mph 95% 0.42 in 0 W/m2
03:29 45.4 °F 44.1 °F 29.91 in ENE 0.8 mph 14 mph 95% 0.44 in 0 W/m2
03:34 45.4 °F 44 °F 29.91 in NE 1.4 mph 14 mph 95% 0.44 in 0 W/m2
03:39 45.3 °F 44 °F 29.91 in NNE 1.9 mph 13 mph 95% 0.35 in 0 W/m2
03:44 45.3 °F 44.2 °F 29.91 in NE 2.5 mph 13 mph 96% 0.37 in 0 W/m2
03:49 45.2 °F 44.2 °F 29.91 in NNE 1.2 mph 13 mph 96% 0.40 in 0 W/m2
03:54 45.2 °F 43.9 °F 29.92 in ENE 1.8 mph 13 mph 95.1% 0.42 in 0 W/m2
03:59 45.3 °F 43.9 °F 29.92 in NE 1.3 mph 13 mph 95% 0.44 in 0 W/m2
04:00 45.3 °F 44 °F 29.92 in ENE 10 mph 13 mph 95% 0.44 in 0 W/m2
04:09 45.3 °F 43.9 °F 29.92 in ENE 2.6 mph 9 mph 95% 0.34 in 0 W/m2
04:14 45.3 °F 43.9 °F 29.92 in NE 2.3 mph 14 mph 95% 0.36 in 0 W/m2
04:19 45.3 °F 44 °F 29.92 in ENE 3.3 mph 14 mph 95% 0.39 in 0 W/m2
04:24 45.3 °F 44 °F 29.92 in ENE 2.1 mph 14 mph 95% 0.41 in 0 W/m2
04:29 45.4 °F 44 °F 29.92 in ENE 1.8 mph 14 mph 95% 0.43 in 0 W/m2
04:34 45.4 °F 44.1 °F 29.93 in ENE 1.4 mph 14 mph 95.2% 0.43 in 0 W/m2
04:39 45.4 °F 44.3 °F 29.92 in ENE 3.4 mph 13 mph 95.8% 0.32 in 0 W/m2
04:44 45.4 °F 44.1 °F 29.93 in ENE 1 mph 13 mph 95.2% 0.34 in 0 W/m2
04:49 45.4 °F 44.3 °F 29.92 in ENE 0.9 mph 13 mph 95.8% 0.36 in 0 W/m2
04:54 45.4 °F 44.4 °F 29.92 in NE 2.1 mph 13 mph 96% 0.38 in 0 W/m2
04:59 45.5 °F 44.4 °F 29.92 in ENE 1.5 mph 13 mph 96% 0.40 in 0 W/m2
05:04 45.5 °F 44.4 °F 29.92 in NE 3.3 mph 13 mph 96% 0.40 in 0 W/m2
05:09 45.4 °F 44.3 °F 29.93 in NE 2.8 mph 12 mph 96% 0.29 in 0 W/m2
05:14 45.4 °F 44.3 °F 29.94 in NE 3.1 mph 12 mph 95.9% 0.31 in 0 W/m2
05:19 45.4 °F 44.2 °F 29.94 in ENE 2.4 mph 12 mph 95.4% 0.33 in 0 W/m2
05:24 45.4 °F 44.3 °F 29.94 in NE 1.7 mph 12 mph 96% 0.34 in 0 W/m2
05:29 45.5 °F 44.4 °F 29.94 in ENE 0.3 mph 12 mph 96% 0.36 in 0 W/m2
05:34 45.5 °F 44.4 °F 29.94 in ENE 1.6 mph 12 mph 96% 0.36 in 0 W/m2
05:39 45.6 °F 44.5 °F 29.94 in NE 1 mph 7 mph 96% 0.24 in 0 W/m2
05:44 45.6 °F 44.5 °F 29.95 in North 0.1 mph 7 mph 96% 0.26 in 0 W/m2
05:49 45.6 °F 44.5 °F 29.95 in NE 0.2 mph 7 mph 96% 0.27 in 0 W/m2
05:54 45.6 °F 44.5 °F 29.95 in NE 2.3 mph 7 mph 96% 0.28 in 0 W/m2
05:59 45.6 °F 44.5 °F 29.94 in ENE 0.6 mph 7 mph 96% 0.29 in 5 W/m2
06:04 45.6 °F 44.5 °F 29.94 in ENE 1.2 mph 10 mph 96% 0.29 in 5 W/m2
06:09 45.6 °F 44.5 °F 29.95 in ENE 1.8 mph 10 mph 96% 0.20 in 5 W/m2
06:14 45.5 °F 44.4 °F 29.95 in ENE 1.8 mph 10 mph 96% 0.20 in 11 W/m2
06:19 45.4 °F 44.3 °F 29.95 in NNE 1.4 mph 10 mph 96% 0.21 in 16 W/m2
06:24 45.3 °F 44.2 °F 29.96 in ENE 2.2 mph 10 mph 96% 0.22 in 18 W/m2
06:29 45.2 °F 44.2 °F 29.95 in NE 2.3 mph 10 mph 96% 0.23 in 18 W/m2
06:34 45.2 °F 44.1 °F 29.96 in East 2 mph 11 mph 96% 0.23 in 14 W/m2
06:39 45.1 °F 44 °F 29.96 in ENE 3.5 mph 11 mph 96% 0.14 in 23 W/m2
06:44 45.1 °F 44 °F 29.96 in ENE 2.2 mph 11 mph 96% 0.15 in 30 W/m2
06:48 45.1 °F 44 °F 29.96 in NE 2.3 mph 11 mph 96% 0.15 in 26 W/m2
07:00 45.2 °F 44.1 °F 29.95 in ENE 2 mph 12 mph 96% 0.00 in 24 W/m2
07:30 45.4 °F 44.3 °F 29.96 in NE 2 mph 17 mph 96% 0.00 in 42 W/m2
08:04 45.7 °F 44.7 °F 29.96 in NE 0.3 mph 17 mph 96% 0.03 in 70 W/m2
08:09 45.9 °F 44.8 °F 29.97 in ENE 1 mph 9 mph 96% 0.03 in 70 W/m2
08:14 46 °F 44.9 °F 29.98 in ENE 0.5 mph 9 mph 96% 0.03 in 62 W/m2
08:19 46.1 °F 45 °F 29.98 in East 0.8 mph 9 mph 96% 0.03 in 62 W/m2
08:24 46.1 °F 45 °F 29.98 in ENE 1.4 mph 9 mph 96% 0.03 in 53 W/m2
08:29 46.1 °F 45 °F 29.99 in NE 0.9 mph 9 mph 96% 0.03 in 51 W/m2
08:34 46.1 °F 45 °F 29.99 in NE 1 mph 10 mph 96% 0.49 in 42 W/m2
08:38 46.2 °F 45.1 °F 29.99 in NE 1 mph 10 mph 96% 0.49 in 42 W/m2
08:44 46.2 °F 45.1 °F 29.99 in ENE 1.9 mph 10 mph 96% 0.49 in 47 W/m2
08:49 46.1 °F 45 °F 29.99 in ENE 1.5 mph 10 mph 96% 0.49 in 60 W/m2
08:54 46.1 °F 45 °F 29.98 in ENE 4.3 mph 15 mph 96% 0.49 in 62 W/m2
08:59 46.1 °F 45 °F 29.98 in ENE 2.7 mph 15 mph 96% 0.49 in 53 W/m2
09:04 46.2 °F 45.1 °F 29.99 in SE 0.1 mph 15 mph 96% 0.49 in 49 W/m2
09:09 46.4 °F 45.3 °F 29.99 in ENE 1.1 mph 9 mph 96% 0.00 in 47 W/m2
09:14 46.5 °F 45.4 °F 29.99 in ENE 1.8 mph 11 mph 96% 0.00 in 44 W/m2
09:19 46.5 °F 45.4 °F 30.00 in NE 1.7 mph 11 mph 96% 0.00 in 46 W/m2
09:24 46.6 °F 45.5 °F 30.00 in ENE 2.3 mph 11 mph 96% 0.00 in 47 W/m2
09:29 46.7 °F 45.6 °F 30.00 in ENE 3.5 mph 11 mph 96% 0.00 in 44 W/m2
09:34 46.6 °F 45.6 °F 30.00 in NE 3.3 mph 11 mph 96% 0.00 in 35 W/m2
09:39 46.6 °F 45.5 °F 30.00 in NE 1.1 mph 10 mph 96% 0.01 in 42 W/m2
09:44 46.7 °F 45.6 °F 30.01 in NE 2.3 mph 13 mph 96% 0.01 in 46 W/m2
09:49 46.7 °F 45.6 °F 30.01 in ENE 1.1 mph 13 mph 96% 0.01 in 56 W/m2
09:54 46.7 °F 45.7 °F 30.01 in NNE 1.7 mph 13 mph 96% 0.02 in 54 W/m2
09:59 46.8 °F 45.7 °F 30.01 in ENE 1.5 mph 13 mph 96% 0.02 in 69 W/m2
10:04 46.8 °F 45.7 °F 30.02 in ENE 1.9 mph 13 mph 96% 0.03 in 62 W/m2
10:09 46.8 °F 45.7 °F 30.02 in NE 2.7 mph 9 mph 96% 0.03 in 65 W/m2
10:14 46.9 °F 45.8 °F 30.02 in ENE 2.1 mph 9 mph 96% 0.04 in 67 W/m2
10:19 46.9 °F 45.8 °F 30.02 in ENE 2.7 mph 10 mph 96% 0.04 in 69 W/m2
10:24 46.9 °F 45.8 °F 30.02 in ENE 3.2 mph 10 mph 96% 0.05 in 72 W/m2
10:29 46.9 °F 45.8 °F 30.02 in ENE 1.6 mph 10 mph 96% 0.05 in 76 W/m2
10:34 46.9 °F 45.8 °F 30.02 in ENE 3.7 mph 12 mph 96% 0.06 in 84 W/m2
10:39 46.9 °F 45.8 °F 30.02 in NE 2.4 mph 12 mph 96% 0.06 in 90 W/m2
10:44 46.9 °F 45.8 °F 30.02 in East 1.7 mph 12 mph 96% 0.07 in 90 W/m2
10:49 47 °F 45.9 °F 30.01 in ENE 3 mph 12 mph 96% 0.07 in 95 W/m2
10:54 47 °F 45.9 °F 30.01 in ENE 3.5 mph 13 mph 96% 0.08 in 107 W/m2
10:59 47 °F 45.9 °F 30.01 in ENE 5.5 mph 14 mph 96% 0.08 in 127 W/m2
11:04 47 °F 45.9 °F 30.01 in ENE 4 mph 14 mph 96% 0.08 in 134 W/m2
11:09 47.1 °F 46.1 °F 30.01 in ENE 3.8 mph 16 mph 96% 0.07 in 137 W/m2
11:14 47.1 °F 46.1 °F 30.01 in East 3.5 mph 16 mph 96% 0.08 in 134 W/m2
11:19 47.2 °F 46.1 °F 30.02 in ENE 3.6 mph 16 mph 96% 0.08 in 135 W/m2
11:24 47.2 °F 46.2 °F 30.02 in ENE 0.8 mph 16 mph 96% 0.09 in 134 W/m2
11:29 47.4 °F 46.3 °F 30.02 in NE 3.1 mph 16 mph 96% 0.09 in 127 W/m2
11:34 47.3 °F 46.2 °F 30.02 in ENE 2.8 mph 16 mph 96% 0.09 in 118 W/m2
11:39 47.3 °F 46.2 °F 30.02 in ENE 1.9 mph 13 mph 96% 0.07 in 116 W/m2
11:44 47.3 °F 46.2 °F 30.03 in East 0.4 mph 13 mph 96% 0.08 in 91 W/m2
11:49 47.3 °F 46.2 °F 30.03 in ENE 3.6 mph 13 mph 96% 0.08 in 97 W/m2
11:54 47.2 °F 46.1 °F 30.03 in ENE 1.6 mph 13 mph 96% 0.09 in 102 W/m2
11:59 47.3 °F 46.2 °F 30.04 in NE 1 mph 13 mph 96% 0.09 in 105 W/m2
12:09 47.3 °F 46.2 °F 30.04 in NE 3.6 mph 11 mph 96% 0.10 in 121 W/m2
12:14 47.3 °F 46.2 °F 30.04 in ENE 2.6 mph 11 mph 96% 0.11 in 160 W/m2
12:19 47.3 °F 46.2 °F 30.04 in ENE 3.8 mph 14 mph 96% 0.11 in 144 W/m2
12:24 47.3 °F 46.2 °F 30.03 in NE 3.3 mph 14 mph 96% 0.11 in 149 W/m2
12:29 47.5 °F 46.4 °F 30.03 in ENE 1.5 mph 14 mph 96% 0.12 in 165 W/m2
12:34 47.6 °F 46.6 °F 30.03 in NE 2.2 mph 14 mph 96% 0.12 in 155 W/m2
12:39 47.7 °F 46.6 °F 30.03 in ENE 2.6 mph 11 mph 96% 0.07 in 179 W/m2
12:44 47.8 °F 46.7 °F 30.03 in NE 1.8 mph 11 mph 96% 0.07 in 167 W/m2
12:49 47.9 °F 46.8 °F 30.03 in ENE 2.4 mph 11 mph 96% 0.07 in 167 W/m2
12:54 47.9 °F 46.9 °F 30.04 in NE 2.8 mph 13 mph 96% 0.08 in 179 W/m2
12:59 48 °F 46.9 °F 30.04 in ENE 1.2 mph 13 mph 96% 0.08 in 179 W/m2
13:04 48 °F 46.9 °F 30.05 in ENE 1.4 mph 13 mph 96% 0.08 in 199 W/m2
13:09 48 °F 46.9 °F 30.04 in NE 1.9 mph 8 mph 96% 0.02 in 229 W/m2
13:14 48.2 °F 47.2 °F 30.05 in NNE 0.6 mph 8 mph 96% 0.03 in 192 W/m2
13:19 48.4 °F 47.3 °F 30.06 in NNE 1.9 mph 11 mph 96% 0.03 in 165 W/m2
13:24 48.4 °F 47.3 °F 30.06 in NE 0.4 mph 11 mph 96% 0.03 in 144 W/m2
13:29 48.5 °F 47.4 °F 30.07 in ENE 0.7 mph 11 mph 96% 0.03 in 132 W/m2
13:34 48.3 °F 47.3 °F 30.06 in ENE 2.7 mph 13 mph 96% 0.03 in 132 W/m2
13:39 48.1 °F 46.8 °F 30.06 in ENE 0.9 mph 13 mph 95.1% 0.03 in 118 W/m2
13:44 48.2 °F 47.1 °F 30.06 in ENE 1.8 mph 13 mph 96% 0.03 in 132 W/m2
13:49 48.3 °F 47.2 °F 30.06 in NNE 1.7 mph 13 mph 96% 0.03 in 125 W/m2
13:54 48.2 °F 46.8 °F 30.06 in NNE 1.7 mph 13 mph 95% 0.03 in 151 W/m2
13:59 48.2 °F 46.8 °F 30.06 in ENE 1.5 mph 13 mph 95% 0.03 in 156 W/m2
14:04 48.1 °F 46.8 °F 30.06 in ENE 1 mph 13 mph 95% 0.03 in 111 W/m2
14:08 48.2 °F 46.8 °F 30.07 in NNE 2 mph 9 mph 95% 0.01 in 113 W/m2
14:30 48.1 °F 46.7 °F 30.08 in ENE 1 mph 11 mph 95% 0.00 in 90 W/m2
15:00 48.2 °F 46.8 °F 30.10 in East 2 mph 11 mph 95% 0.00 in 87 W/m2
15:30 48.3 °F 46.7 °F 30.10 in ENE 3 mph 15 mph 94% 0.00 in 116 W/m2
16:04 48.8 °F 46.6 °F 30.10 in East 3 mph 7 mph 92% 0.06 in 139 W/m2
16:09 48.8 °F 46.6 °F 30.11 in NE 4.3 mph 16 mph 92% 0.06 in 148 W/m2
16:14 49 °F 46.7 °F 30.11 in NE 3.4 mph 16 mph 92% 0.06 in 125 W/m2
16:19 49 °F 46.8 °F 30.11 in ENE 3 mph 16 mph 91.9% 0.06 in 109 W/m2
16:24 49 °F 46.5 °F 30.11 in ENE 2.1 mph 16 mph 91% 0.06 in 130 W/m2
16:29 49 °F 46.5 °F 30.10 in NE 1.9 mph 16 mph 91% 0.06 in 107 W/m2
16:34 49.1 °F 46.6 °F 30.11 in NE 4.2 mph 16 mph 91% 0.06 in 104 W/m2
16:39 49 °F 46.2 °F 30.10 in NE 3 mph 14 mph 90% 0.06 in 79 W/m2
16:44 49 °F 46.1 °F 30.10 in ENE 4 mph 14 mph 89.5% 0.06 in 74 W/m2
16:49 49 °F 45.9 °F 30.10 in ENE 4.3 mph 14 mph 89% 0.06 in 114 W/m2
16:53 49 °F 45.9 °F 30.10 in ENE 3.7 mph 14 mph 89% 0.06 in 100 W/m2
17:00 49.2 °F 46.1 °F 30.10 in ENE 4 mph 14 mph 89% 0.06 in 82 W/m2
18:00 48.6 °F 44.6 °F 30.12 in ENE 4 mph 14 mph 86% 0.00 in 59 W/m2
18:30 48.5 °F 43.9 °F 30.12 in ENE 5 mph 16 mph 84% 0.00 in 33 W/m2
19:00 48.4 °F 43.5 °F 30.14 in ENE 4 mph 20 mph 83% 0.00 in 16 W/m2
19:30 48.3 °F 43.4 °F 30.15 in ENE 3 mph 13 mph 83% 0.00 in 8 W/m2
20:04 48.2 °F 43.6 °F 30.16 in NNE 3.6 mph 7 mph 84% 0.00 in 0 W/m2
20:09 48.1 °F 43.5 °F 30.16 in ENE 2.2 mph 9 mph 84% 0.00 in 0 W/m2
20:14 48.1 °F 43.5 °F 30.16 in ENE 3 mph 9 mph 84% 0.00 in 0 W/m2
20:19 48.1 °F 43.5 °F 30.16 in ENE 2.9 mph 9 mph 84% 0.00 in 0 W/m2
20:24 48 °F 43.4 °F 30.16 in ENE 0.8 mph 9 mph 84% 0.00 in 0 W/m2
20:29 48 °F 43.4 °F 30.16 in ENE 2.3 mph 12 mph 84% 0.00 in 0 W/m2
20:34 47.9 °F 43.3 °F 30.17 in NNW 0.9 mph 12 mph 84% 0.00 in 0 W/m2
20:39 47.9 °F 43.3 °F 30.17 in ENE 1.3 mph 9 mph 84% 0.00 in 0 W/m2
20:44 47.9 °F 43.3 °F 30.17 in ENE 0.9 mph 9 mph 84% 0.00 in 0 W/m2
20:49 47.8 °F 43.2 °F 30.17 in ENE 4.2 mph 16 mph 84% 0.00 in 0 W/m2
20:54 47.8 °F 43.2 °F 30.17 in ENE 1.2 mph 16 mph 84% 0.00 in 0 W/m2
20:59 47.8 °F 43.2 °F 30.17 in ENE 1.6 mph 16 mph 83.8% 0.00 in 0 W/m2
21:04 47.8 °F 43 °F 30.17 in ENE 3.5 mph 16 mph 83.3% 0.00 in 0 W/m2
21:09 47.8 °F 42.9 °F 30.17 in ENE 1.6 mph 10 mph 83.2% 0.00 in 0 W/m2
21:14 47.8 °F 43.1 °F 30.17 in ENE 3.3 mph 17 mph 83.8% 0.00 in 0 W/m2
21:19 47.7 °F 42.9 °F 30.17 in ENE 1.8 mph 17 mph 83.2% 0.00 in 0 W/m2
21:24 47.7 °F 43 °F 30.17 in ENE 1 mph 17 mph 83.5% 0.00 in 0 W/m2
21:29 47.7 °F 43.1 °F 30.17 in ENE 3.5 mph 17 mph 84% 0.00 in 0 W/m2
21:34 47.7 °F 43.1 °F 30.18 in NE 1.6 mph 17 mph 84% 0.00 in 0 W/m2
21:39 47.7 °F 43.1 °F 30.18 in ENE 1.3 mph 10 mph 84% 0.00 in 0 W/m2
21:44 47.6 °F 42.9 °F 30.18 in East 2.1 mph 10 mph 83.7% 0.00 in 0 W/m2
21:49 47.6 °F 42.9 °F 30.18 in ENE 1.5 mph 10 mph 83.6% 0.00 in 0 W/m2
21:54 47.6 °F 43 °F 30.17 in ENE 0.8 mph 10 mph 83.9% 0.00 in 0 W/m2
21:59 47.6 °F 43 °F 30.17 in East 0.4 mph 10 mph 84% 0.00 in 0 W/m2
22:04 47.6 °F 43 °F 30.18 in ENE 0.6 mph 10 mph 84% 0.00 in 0 W/m2
22:09 47.6 °F 43 °F 30.18 in ENE 1.3 mph 13 mph 84% 0.00 in 0 W/m2
22:14 47.6 °F 43 °F 30.18 in ENE 1 mph 13 mph 84% 0.00 in 0 W/m2
22:19 47.5 °F 42.9 °F 30.18 in ENE 0.5 mph 13 mph 84% 0.00 in 0 W/m2
22:24 47.5 °F 42.9 °F 30.18 in ENE 0.7 mph 13 mph 84% 0.00 in 0 W/m2
22:29 47.5 °F 42.9 °F 30.18 in ENE 0.5 mph 13 mph 84% 0.00 in 0 W/m2
22:34 47.5 °F 42.9 °F 30.17 in Calm   13 mph 84% 0.00 in 0 W/m2
22:39 47.4 °F 42.8 °F 30.17 in NNW 0.5 mph 7 mph 84% 0.00 in 0 W/m2
22:44 47.4 °F 42.8 °F 30.17 in NNW 0.7 mph 7 mph 84% 0.00 in 0 W/m2
22:49 47.4 °F 42.8 °F 30.18 in North 0.4 mph 7 mph 84% 0.00 in 0 W/m2
22:54 47.4 °F 42.8 °F 30.17 in ENE 0.8 mph 7 mph 84% 0.00 in 0 W/m2
22:59 47.3 °F 42.5 °F 30.18 in East 0.4 mph 7 mph 83.2% 0.00 in 0 W/m2
23:04 47.3 °F 42.5 °F 30.17 in NE 1.2 mph 9 mph 83.2% 0.00 in 0 W/m2
23:09 47.3 °F 42.4 °F 30.17 in NE 1.6 mph 9 mph 83.1% 0.00 in 0 W/m2
23:14 47.3 °F 42.4 °F 30.17 in ENE 0.4 mph 9 mph 83% 0.00 in 0 W/m2
23:19 47.3 °F 42.4 °F 30.17 in NE 0.3 mph 9 mph 83% 0.00 in 0 W/m2
23:24 47.3 °F 42.6 °F 30.17 in ENE 0.5 mph 9 mph 83.6% 0.00 in 0 W/m2
23:29 47.3 °F 42.4 °F 30.17 in North 1 mph 10 mph 83% 0.00 in 0 W/m2
23:34 47.2 °F 42.4 °F 30.17 in ENE 0.5 mph 10 mph 83% 0.00 in 0 W/m2
23:39 47.3 °F 42.4 °F 30.17 in NNE 1.1 mph 7 mph 83% 0.00 in 0 W/m2
23:44 47.3 °F 42.4 °F 30.17 in NNE 0.6 mph 7 mph 83% 0.00 in 0 W/m2
23:49 47.3 °F 42.4 °F 30.17 in ENE 0.6 mph 7 mph 82.9% 0.00 in 0 W/m2
23:54 47.3 °F 42.2 °F 30.17 in NE 0.6 mph 7 mph 82.3% 0.00 in 0 W/m2
23:59 47.3 °F 42.3 °F 30.17 in ENE 0.2 mph 7 mph 82.5% 0.00 in 0 W/m2
Hartford County Weather
Compliments of Weather Underground - 4 mb